Аэропорт: Толмачёво. Новосибирск

ICAO: UNNT

METAR:
2019/03/26 13:00
UNNT 261300Z 14002MPS CAVOK 03/M07 Q1028 R25/190065 R34/110070 NOSIG RMK QFE761/1015
METAR:
2019/03/26 12:21
TAF UNNT 261100Z 2612/2712 17005G11MPS 5000 FU BR NSC 
      TEMPO 2614/2703 12003MPS 0300 FU FZFG SCT001 BKN011 
      BECMG 2703/2704 9999 NSW BKN016CB 
      TEMPO 2704/2709 23003G08MPS 3100 -SHSNRA BKN011CB 
     FM270900 29005G11MPS 9999 -SHSNRA BKN011CB 
      TEMPO 2709/2712 24003G08MPS